Time;durP1;ratioP1;P1;durP2;ratioP2;P2;SDS_P1;SDS_P2;PMS_P1;PMS_P2;Temp;Humidity;BMP_temperature;BMP_pressure;BME280_temperature;BME280_humidity;BME280_pressure;Samples;Min_cycle;Max_cycle;Signal;HPM_P1;HPM_P2
2023/01/02 00:00:04;;;;;;;15.75;5.82;;;;;;;;;;6313484;22;20011;-83
2023/01/02 00:02:33;;;;;;;13.23;5.63;;;;;;;;;;6341527;22;20015;-82
2023/01/02 00:05:02;;;;;;;16.00;6.50;;;;;;;;;;6341492;22;20713;-82
2023/01/02 00:07:29;;;;;;;18.83;6.18;;;;;;;;;;6314020;22;20034;-82
2023/01/02 00:09:55;;;;;;;15.95;6.20;;;;;;;;;;6341422;22;20104;-83
2023/01/02 00:12:22;;;;;;;16.15;5.80;;;;;;;;;;6341359;22;20041;-82
2023/01/02 00:14:48;;;;;;;17.48;6.13;;;;;;;;;;6341505;22;20085;-83
2023/01/02 00:17:17;;;;;;;16.67;5.95;;;;;;;;;;6341955;22;20030;-81
2023/01/02 00:19:44;;;;;;;15.07;5.78;;;;;;;;;;6313594;22;20486;-82
2023/01/02 00:22:10;;;;;;;16.90;6.43;;;;;;;;;;6341600;22;20034;-81
2023/01/02 00:24:39;;;;;;;20.45;6.40;;;;;;;;;;6341858;22;20023;-83
2023/01/02 00:27:05;;;;;;;16.73;6.18;;;;;;;;;;6340887;22;20046;-82
2023/01/02 00:29:31;;;;;;;15.55;6.07;;;;;;;;;;6341596;22;20601;-82
2023/01/02 00:31:58;;;;;;;16.95;6.38;;;;;;;;;;6341702;22;20031;-82
2023/01/02 00:34:25;;;;;;;18.15;7.40;;;;;;;;;;6313753;22;20031;-83
2023/01/02 00:36:52;;;;;;;17.70;6.25;;;;;;;;;;6341026;22;20058;-82
2023/01/02 00:39:18;;;;;;;21.42;7.38;;;;;;;;;;6340768;22;20055;-82
2023/01/02 00:41:44;;;;;;;17.77;5.97;;;;;;;;;;6314304;22;20059;-81
2023/01/02 00:44:11;;;;;;;14.88;6.85;;;;;;;;;;6342133;22;20103;-82
2023/01/02 00:46:37;;;;;;;15.95;6.43;;;;;;;;;;6341730;22;20084;-83
2023/01/02 00:49:03;;;;;;;20.23;6.85;;;;;;;;;;6341721;22;20126;-83
2023/01/02 00:51:30;;;;;;;13.93;6.43;;;;;;;;;;6340860;22;20019;-82
2023/01/02 00:53:56;;;;;;;18.52;7.50;;;;;;;;;;6341504;22;20031;-83
2023/01/02 00:56:22;;;;;;;20.70;6.53;;;;;;;;;;6340864;22;20514;-81
2023/01/02 00:58:52;;;;;;;14.35;6.63;;;;;;;;;;6340761;22;20503;-82
2023/01/02 01:01:18;;;;;;;11.38;5.60;;;;;;;;;;6341135;22;20007;-83
2023/01/02 01:03:45;;;;;;;16.15;6.47;;;;;;;;;;6340879;22;20019;-81
2023/01/02 01:06:11;;;;;;;19.02;6.55;;;;;;;;;;6340134;22;20499;-81
2023/01/02 01:08:38;;;;;;;15.60;6.47;;;;;;;;;;6341231;22;20081;-82
2023/01/02 01:11:09;;;;;;;19.90;6.55;;;;;;;;;;6313622;22;20464;-82
2023/01/02 01:13:47;;;;;;;13.70;5.80;;;;;;;;;;6340621;22;20088;-82
2023/01/02 01:16:15;;;;;;;13.80;5.85;;;;;;;;;;6342536;22;20022;-81
2023/01/02 01:18:41;;;;;;;12.35;5.43;;;;;;;;;;6340590;22;20054;-82
2023/01/02 01:21:15;;;;;;;15.52;5.43;;;;;;;;;;6311886;22;20432;-81
2023/01/02 01:23:42;;;;;;;13.43;5.80;;;;;;;;;;6340336;22;20023;-82
2023/01/02 01:26:10;;;;;;;17.00;6.03;;;;;;;;;;6311154;22;20082;-81
2023/01/02 01:28:37;;;;;;;14.63;6.22;;;;;;;;;;6341045;22;20117;-81
2023/01/02 01:31:04;;;;;;;18.13;5.47;;;;;;;;;;6312992;22;20034;-82
2023/01/02 01:33:33;;;;;;;16.15;5.40;;;;;;;;;;6340491;22;20031;-81
2023/01/02 01:36:03;;;;;;;16.33;5.15;;;;;;;;;;6339361;22;20019;-81
2023/01/02 01:38:30;;;;;;;16.65;5.63;;;;;;;;;;6340226;22;20020;-82
2023/01/02 01:40:57;;;;;;;16.35;5.97;;;;;;;;;;6314673;22;20027;-81
2023/01/02 01:43:41;;;;;;;14.57;6.05;;;;;;;;;;6341090;22;20922;-81
2023/01/02 01:46:14;;;;;;;16.80;5.53;;;;;;;;;;6311889;22;20095;-82
2023/01/02 01:48:40;;;;;;;14.48;5.90;;;;;;;;;;6339752;22;20474;-81
2023/01/02 01:51:07;;;;;;;17.17;6.60;;;;;;;;;;6341484;22;20460;-83
2023/01/02 01:53:33;;;;;;;15.45;6.15;;;;;;;;;;6340246;22;20023;-82
2023/01/02 01:56:04;;;;;;;13.20;5.85;;;;;;;;;;6339343;22;20027;-81
2023/01/02 01:58:33;;;;;;;18.63;5.90;;;;;;;;;;6340264;22;20206;-81
2023/01/02 02:01:00;;;;;;;14.93;6.10;;;;;;;;;;6339873;22;20420;-82
2023/01/02 02:03:28;;;;;;;15.68;5.93;;;;;;;;;;6340864;22;20853;-81
2023/01/02 02:05:55;;;;;;;11.55;5.95;;;;;;;;;;6340160;22;20105;-81
2023/01/02 02:08:40;;;;;;;14.35;6.20;;;;;;;;;;6339330;22;20027;-82
2023/01/02 02:11:08;;;;;;;15.90;6.22;;;;;;;;;;6340404;22;20047;-81
2023/01/02 02:13:34;;;;;;;17.20;6.30;;;;;;;;;;6340687;22;20032;-81
2023/01/02 02:16:16;;;;;;;15.95;5.90;;;;;;;;;;6339814;22;20090;-81
2023/01/02 02:18:51;;;;;;;15.05;5.78;;;;;;;;;;6338914;22;20026;-82
2023/01/02 02:21:18;;;;;;;13.18;5.80;;;;;;;;;;6339180;22;20031;-81
2023/01/02 02:23:47;;;;;;;20.65;6.13;;;;;;;;;;6338977;22;20030;-82
2023/01/02 02:26:28;;;;;;;17.13;5.45;;;;;;;;;;6339250;22;20026;-81
2023/01/02 02:29:11;;;;;;;16.48;5.53;;;;;;;;;;6312446;22;20420;-82
2023/01/02 02:31:40;;;;;;;11.38;5.20;;;;;;;;;;6339523;22;20490;-81
2023/01/02 02:34:13;;;;;;;12.63;5.05;;;;;;;;;;6338155;22;20047;-82
2023/01/02 02:36:43;;;;;;;14.02;5.70;;;;;;;;;;6340018;22;20019;-82
2023/01/02 02:39:28;;;;;;;13.35;4.93;;;;;;;;;;6309914;22;20019;-81
2023/01/02 02:42:01;;;;;;;15.18;5.45;;;;;;;;;;6338976;22;20085;-81
2023/01/02 02:44:27;;;;;;;11.68;4.55;;;;;;;;;;6338819;22;20031;-81
2023/01/02 02:47:01;;;;;;;14.70;4.57;;;;;;;;;;6311036;22;20027;-82
2023/01/02 02:49:28;;;;;;;12.32;4.43;;;;;;;;;;6339262;22;20066;-82
2023/01/02 02:52:01;;;;;;;14.13;5.30;;;;;;;;;;6339378;22;20161;-82
2023/01/02 02:54:33;;;;;;;18.73;5.15;;;;;;;;;;6339960;22;20107;-81
2023/01/02 02:57:00;;;;;;;11.77;4.82;;;;;;;;;;6311023;22;20057;-82
2023/01/02 02:59:27;;;;;;;12.05;4.43;;;;;;;;;;6339662;22;20015;-81
2023/01/02 03:01:53;;;;;;;15.90;4.55;;;;;;;;;;6338407;22;20530;-81
2023/01/02 03:04:21;;;;;;;9.60;3.95;;;;;;;;;;6339121;22;20046;-81
2023/01/02 03:06:50;;;;;;;12.95;4.22;;;;;;;;;;6311331;22;20334;-82
2023/01/02 03:09:37;;;;;;;13.98;4.68;;;;;;;;;;6338022;22;20030;-81
2023/01/02 03:12:06;;;;;;;13.38;4.32;;;;;;;;;;6337946;22;20019;-82
2023/01/02 03:14:43;;;;;;;11.77;4.18;;;;;;;;;;6312888;22;20110;-81
2023/01/02 03:17:28;;;;;;;10.90;4.20;;;;;;;;;;6312461;22;20516;-81
2023/01/02 03:19:57;;;;;;;11.05;3.95;;;;;;;;;;6339737;22;20830;-81
2023/01/02 03:22:28;;;;;;;13.50;4.50;;;;;;;;;;6340835;22;20023;-82
2023/01/02 03:24:55;;;;;;;9.05;3.92;;;;;;;;;;6339588;22;20054;-81
2023/01/02 03:27:24;;;;;;;14.07;3.95;;;;;;;;;;6340408;22;20077;-82
2023/01/02 03:29:58;;;;;;;11.93;3.97;;;;;;;;;;6339981;22;20500;-82
2023/01/02 03:32:44;;;;;;;14.95;4.60;;;;;;;;;;6339673;22;20065;-82
2023/01/02 03:35:14;;;;;;;12.02;4.28;;;;;;;;;;6339304;22;20345;-82
2023/01/02 03:37:44;;;;;;;12.43;4.40;;;;;;;;;;6311966;22;20027;-81
2023/01/02 03:40:13;;;;;;;12.18;3.85;;;;;;;;;;6341170;22;20100;-81
2023/01/02 03:42:51;;;;;;;12.88;4.38;;;;;;;;;;6340338;22;20110;-82
2023/01/02 03:45:21;;;;;;;11.15;3.45;;;;;;;;;;6311711;22;20475;-82
2023/01/02 03:47:54;;;;;;;8.73;3.38;;;;;;;;;;6340227;22;20050;-82
2023/01/02 03:50:40;;;;;;;13.52;4.38;;;;;;;;;;6339721;22;20113;-82
2023/01/02 03:53:07;;;;;;;10.68;4.00;;;;;;;;;;6318764;22;20046;-82
2023/01/02 03:55:35;;;;;;;9.60;3.72;;;;;;;;;;6340452;22;20019;-82
2023/01/02 03:58:04;;;;;;;14.23;3.67;;;;;;;;;;6338140;22;20063;-81
2023/01/02 04:00:35;;;;;;;13.10;4.22;;;;;;;;;;6338483;22;20363;-82
2023/01/02 04:03:02;;;;;;;;;;;;;;;;;;6340775;22;20023;-83
2023/01/02 04:05:31;;;;;;;8.32;3.60;;;;;;;;;;6340060;22;48115;-82
2023/01/02 04:08:16;;;;;;;10.40;3.65;;;;;;;;;;6339141;22;20023;-82
2023/01/02 04:10:43;;;;;;;11.20;4.13;;;;;;;;;;6311717;22;20034;-81
2023/01/02 04:13:19;;;;;;;11.50;3.40;;;;;;;;;;6312343;22;20027;-82
2023/01/02 04:15:47;;;;;;;9.93;3.65;;;;;;;;;;6340459;22;20053;-82
2023/01/02 04:18:19;;;;;;;9.95;3.40;;;;;;;;;;6338782;22;20031;-81
2023/01/02 04:20:50;;;;;;;10.68;4.50;;;;;;;;;;6339834;22;20023;-82
2023/01/02 04:23:19;;;;;;;14.93;4.90;;;;;;;;;;6340209;22;20027;-82
2023/01/02 04:25:55;;;;;;;16.60;4.90;;;;;;;;;;6339687;22;20823;-82
2023/01/02 04:28:23;;;;;;;9.65;3.70;;;;;;;;;;6339764;22;20050;-81
2023/01/02 04:30:52;;;;;;;10.13;3.78;;;;;;;;;;6338483;22;20038;-81
2023/01/02 04:33:21;;;;;;;12.02;4.28;;;;;;;;;;6339128;22;20023;-82
2023/01/02 04:35:47;;;;;;;11.35;4.25;;;;;;;;;;6340366;22;20027;-82
2023/01/02 04:38:13;;;;;;;11.43;3.65;;;;;;;;;;6311192;22;20604;-82
2023/01/02 04:40:40;;;;;;;10.82;4.35;;;;;;;;;;6340738;22;20026;-82
2023/01/02 04:43:12;;;;;;;11.82;4.50;;;;;;;;;;6339377;22;20027;-83
2023/01/02 04:45:39;;;;;;;10.27;3.97;;;;;;;;;;6339042;22;20072;-81
2023/01/02 04:48:05;;;;;;;9.88;3.80;;;;;;;;;;6339937;22;20061;-81
2023/01/02 04:50:31;;;;;;;8.82;3.92;;;;;;;;;;6339976;22;20102;-82
2023/01/02 04:52:58;;;;;;;10.32;4.45;;;;;;;;;;6340267;22;20026;-82
2023/01/02 04:55:24;;;;;;;13.68;3.95;;;;;;;;;;6339545;22;20019;-82
2023/01/02 04:57:50;;;;;;;10.90;3.97;;;;;;;;;;6339480;22;20111;-82
2023/01/02 05:00:17;;;;;;;10.93;3.72;;;;;;;;;;6339744;22;20072;-82
2023/01/02 05:02:43;;;;;;;8.55;3.53;;;;;;;;;;6312902;22;20033;-82
2023/01/02 05:05:10;;;;;;;12.60;4.20;;;;;;;;;;6339047;22;20041;-82
2023/01/02 05:07:39;;;;;;;12.25;4.35;;;;;;;;;;6338702;22;20093;-82
2023/01/02 05:10:08;;;;;;;9.73;4.10;;;;;;;;;;6340048;22;20114;-82
2023/01/02 05:12:35;;;;;;;8.85;4.22;;;;;;;;;;6312714;22;20138;-82
2023/01/02 05:15:02;;;;;;;10.25;4.85;;;;;;;;;;6338975;22;20595;-81
2023/01/02 05:17:32;;;;;;;10.52;4.35;;;;;;;;;;6337950;22;20033;-82
2023/01/02 05:19:59;;;;;;;16.17;5.15;;;;;;;;;;6340103;22;20030;-82
2023/01/02 05:25:10;;;;;;;11.38;4.45;;;;;;;;;;6339141;22;20023;-82
2023/01/02 05:27:36;;;;;;;12.68;4.43;;;;;;;;;;6338597;22;20360;-82
2023/01/02 05:30:03;;;;;;;8.93;4.22;;;;;;;;;;6339625;22;20114;-82
2023/01/02 05:32:29;;;;;;;12.43;4.85;;;;;;;;;;6339689;22;20118;-81
2023/01/02 05:34:56;;;;;;;10.68;4.65;;;;;;;;;;6340227;22;20110;-82
2023/01/02 05:37:22;;;;;;;13.30;4.45;;;;;;;;;;6338454;22;20058;-82
2023/01/02 05:39:49;;;;;;;12.10;4.40;;;;;;;;;;6338339;22;20023;-82
2023/01/02 05:42:15;;;;;;;11.15;4.53;;;;;;;;;;6340219;22;20080;-82
2023/01/02 05:44:42;;;;;;;13.00;4.90;;;;;;;;;;6339862;22;20204;-81
2023/01/02 05:47:08;;;;;;;9.23;4.60;;;;;;;;;;6336663;22;20412;-82
2023/01/02 05:49:41;;;;;;;10.73;5.20;;;;;;;;;;6339539;22;20030;-82
2023/01/02 05:52:07;;;;;;;10.25;4.45;;;;;;;;;;6338970;22;20085;-82
2023/01/02 05:54:36;;;;;;;9.98;4.72;;;;;;;;;;6339404;22;20046;-81
2023/01/02 05:57:03;;;;;;;10.77;5.47;;;;;;;;;;6338063;22;20465;-82
2023/01/02 05:59:29;;;;;;;11.82;4.65;;;;;;;;;;6338481;22;20799;-82
2023/01/02 06:02:01;;;;;;;7.22;3.10;;;;;;;;;;6339864;22;20549;-82
2023/01/02 06:04:27;;;;;;;4.78;1.80;;;;;;;;;;6339135;22;20028;-82
2023/01/02 06:06:54;;;;;;;4.40;1.80;;;;;;;;;;6338360;22;20031;-82
2023/01/02 06:09:20;;;;;;;4.20;1.60;;;;;;;;;;6309952;22;20027;-82
2023/01/02 06:11:46;;;;;;;4.13;1.40;;;;;;;;;;6339116;22;20114;-82
2023/01/02 06:14:13;;;;;;;5.28;1.20;;;;;;;;;;6339166;22;20023;-82
2023/01/02 06:16:39;;;;;;;3.47;1.05;;;;;;;;;;6312092;22;20094;-82
2023/01/02 06:19:06;;;;;;;4.32;1.00;;;;;;;;;;6338431;22;20029;-82
2023/01/02 06:21:32;;;;;;;2.63;0.80;;;;;;;;;;6311311;22;20027;-81
2023/01/02 06:23:59;;;;;;;3.47;1.00;;;;;;;;;;6310539;22;20104;-81
2023/01/02 06:26:26;;;;;;;2.38;0.77;;;;;;;;;;6338606;22;20023;-81
2023/01/02 06:29:00;;;;;;;3.60;0.90;;;;;;;;;;6337860;22;20027;-81
2023/01/02 06:31:28;;;;;;;3.70;1.13;;;;;;;;;;6338557;22;20206;-81
2023/01/02 06:33:55;;;;;;;2.97;1.10;;;;;;;;;;6339358;22;20369;-81
2023/01/02 06:36:22;;;;;;;3.90;1.20;;;;;;;;;;6336738;22;20061;-81
2023/01/02 06:38:49;;;;;;;3.15;1.20;;;;;;;;;;6338733;22;20012;-80
2023/01/02 06:41:18;;;;;;;3.80;1.45;;;;;;;;;;6338682;22;20030;-81
2023/01/02 06:43:45;;;;;;;4.13;1.85;;;;;;;;;;6337851;22;20026;-81
2023/01/02 06:46:12;;;;;;;4.20;1.70;;;;;;;;;;6336470;22;20019;-81
2023/01/02 06:48:39;;;;;;;4.80;1.60;;;;;;;;;;6338660;22;20025;-81
2023/01/02 06:51:06;;;;;;;4.30;1.98;;;;;;;;;;6338274;22;20027;-81
2023/01/02 06:53:33;;;;;;;4.65;2.03;;;;;;;;;;6337876;22;20027;-81
2023/01/02 06:56:00;;;;;;;4.95;1.98;;;;;;;;;;6310276;22;20031;-81
2023/01/02 06:58:28;;;;;;;5.60;2.45;;;;;;;;;;6338357;22;20081;-81
2023/01/02 07:00:59;;;;;;;5.30;2.47;;;;;;;;;;6337693;22;20020;-81
2023/01/02 07:03:26;;;;;;;5.47;2.38;;;;;;;;;;6338294;22;20023;-81
2023/01/02 07:05:52;;;;;;;5.88;2.40;;;;;;;;;;6337893;22;20022;-81
2023/01/02 07:08:22;;;;;;;5.47;2.78;;;;;;;;;;6310695;22;20071;-81
2023/01/02 07:10:48;;;;;;;7.45;2.95;;;;;;;;;;6338696;22;20086;-81
2023/01/02 07:13:18;;;;;;;6.77;2.73;;;;;;;;;;6338525;22;20028;-81
2023/01/02 07:15:44;;;;;;;6.40;2.88;;;;;;;;;;6338937;22;20074;-81
2023/01/02 07:18:11;;;;;;;5.95;2.88;;;;;;;;;;6309880;22;20029;-81
2023/01/02 07:20:37;;;;;;;7.15;3.00;;;;;;;;;;6337554;22;20023;-81
2023/01/02 07:23:04;;;;;;;5.28;2.47;;;;;;;;;;6338800;22;20105;-81
2023/01/02 07:25:30;;;;;;;6.88;2.97;;;;;;;;;;6337421;22;20023;-81
2023/01/02 07:27:58;;;;;;;9.05;3.08;;;;;;;;;;6336742;22;20024;-81
2023/01/02 07:30:24;;;;;;;7.93;3.00;;;;;;;;;;6338352;22;20154;-81
2023/01/02 07:32:52;;;;;;;7.38;3.13;;;;;;;;;;6308848;22;20034;-81
2023/01/02 07:35:18;;;;;;;7.25;3.03;;;;;;;;;;6310419;22;20023;-81
2023/01/02 07:37:44;;;;;;;7.30;3.20;;;;;;;;;;6310762;22;20020;-81
2023/01/02 07:40:11;;;;;;;7.55;3.17;;;;;;;;;;6338836;22;20571;-81
2023/01/02 07:42:37;;;;;;;6.25;3.00;;;;;;;;;;6336461;22;20410;-81
2023/01/02 07:45:04;;;;;;;7.20;2.80;;;;;;;;;;6337854;22;20015;-81
2023/01/02 07:47:31;;;;;;;6.47;2.50;;;;;;;;;;6338618;22;20042;-81
2023/01/02 07:49:57;;;;;;;8.55;2.97;;;;;;;;;;6309654;22;20061;-81
2023/01/02 07:52:23;;;;;;;5.88;2.45;;;;;;;;;;6337510;22;20341;-81
2023/01/02 07:54:50;;;;;;;6.22;2.30;;;;;;;;;;6337232;22;20988;-82
2023/01/02 07:57:16;;;;;;;6.05;2.30;;;;;;;;;;6336040;22;20037;-81
2023/01/02 07:59:45;;;;;;;6.47;2.08;;;;;;;;;;6336494;22;20098;-81
2023/01/02 08:02:12;;;;;;;6.90;2.22;;;;;;;;;;6338342;22;20045;-81
2023/01/02 08:04:38;;;;;;;7.82;2.65;;;;;;;;;;6338723;22;20526;-81
2023/01/02 08:07:05;;;;;;;5.70;1.98;;;;;;;;;;6339265;22;20134;-81
2023/01/02 08:09:31;;;;;;;9.00;1.83;;;;;;;;;;6340346;22;20085;-81
2023/01/02 08:11:57;;;;;;;5.45;1.67;;;;;;;;;;6341223;22;20529;-81
2023/01/02 08:14:24;;;;;;;5.90;2.13;;;;;;;;;;6314406;22;20059;-81
2023/01/02 08:16:50;;;;;;;5.72;2.10;;;;;;;;;;6341740;22;20011;-81
2023/01/02 08:19:17;;;;;;;6.10;1.83;;;;;;;;;;6343321;22;20031;-82
2023/01/02 08:21:43;;;;;;;5.57;1.77;;;;;;;;;;6343646;22;20055;-81
2023/01/02 08:24:09;;;;;;;5.30;1.95;;;;;;;;;;6342605;22;20019;-81
2023/01/02 08:26:36;;;;;;;9.30;2.10;;;;;;;;;;6342571;22;20023;-82
2023/01/02 08:29:03;;;;;;;7.82;2.38;;;;;;;;;;6342703;22;20472;-81
2023/01/02 08:31:32;;;;;;;9.18;2.38;;;;;;;;;;6340616;22;20110;-81
2023/01/02 08:33:58;;;;;;;7.03;2.70;;;;;;;;;;6342787;22;20118;-81
2023/01/02 08:36:27;;;;;;;7.60;2.75;;;;;;;;;;6341689;22;20062;-81
2023/01/02 08:38:54;;;;;;;8.57;3.08;;;;;;;;;;6341333;22;20023;-81
2023/01/02 08:41:30;;;;;;;10.02;3.50;;;;;;;;;;6314174;22;20019;-81
2023/01/02 08:43:56;;;;;;;7.15;2.65;;;;;;;;;;6341181;22;20071;-81
2023/01/02 08:46:23;;;;;;;9.77;3.53;;;;;;;;;;6340780;22;20019;-81
2023/01/02 08:48:49;;;;;;;8.45;3.05;;;;;;;;;;6340357;22;20093;-81
2023/01/02 08:51:16;;;;;;;9.95;3.50;;;;;;;;;;6315180;22;20059;-81
2023/01/02 08:53:42;;;;;;;8.43;3.25;;;;;;;;;;6342908;22;20030;-81
2023/01/02 08:56:16;;;;;;;8.88;3.58;;;;;;;;;;6313273;22;20029;-81
2023/01/02 08:58:42;;;;;;;8.32;3.05;;;;;;;;;;6313945;22;20451;-81
2023/01/02 09:01:15;;;;;;;10.73;3.25;;;;;;;;;;6341562;22;20027;-81
2023/01/02 09:03:42;;;;;;;8.55;2.90;;;;;;;;;;6341091;22;20081;-81
2023/01/02 09:06:08;;;;;;;14.15;4.22;;;;;;;;;;6341764;22;20062;-81
2023/01/02 09:08:34;;;;;;;6.53;2.63;;;;;;;;;;6341798;22;20027;-81
2023/01/02 09:11:14;;;;;;;6.90;3.25;;;;;;;;;;6342383;22;20085;-81
2023/01/02 09:13:41;;;;;;;7.63;3.60;;;;;;;;;;6344012;22;20081;-81
2023/01/02 09:16:08;;;;;;;13.18;4.32;;;;;;;;;;6341468;22;20517;-82
2023/01/02 09:18:34;;;;;;;12.00;4.70;;;;;;;;;;6315728;22;20051;-81
2023/01/02 09:21:01;;;;;;;10.20;4.75;;;;;;;;;;6342376;22;20019;-81
2023/01/02 09:23:28;;;;;;;10.25;4.38;;;;;;;;;;6340852;22;20050;-81
2023/01/02 09:25:59;;;;;;;11.05;4.80;;;;;;;;;;6339409;22;20023;-81
2023/01/02 09:28:26;;;;;;;10.80;4.88;;;;;;;;;;6341957;22;20027;-81
2023/01/02 09:30:55;;;;;;;9.90;4.15;;;;;;;;;;6340760;22;20023;-81
2023/01/02 09:33:21;;;;;;;9.35;4.55;;;;;;;;;;6341567;22;20022;-81
2023/01/02 09:35:48;;;;;;;11.25;4.20;;;;;;;;;;6340986;22;20008;-81
2023/01/02 09:38:15;;;;;;;8.18;4.40;;;;;;;;;;6339043;22;20027;-82
2023/01/02 09:40:45;;;;;;;9.02;4.07;;;;;;;;;;6341006;22;20023;-81
2023/01/02 09:43:13;;;;;;;9.10;3.60;;;;;;;;;;6341241;22;20030;-81
2023/01/02 09:45:41;;;;;;;12.18;3.70;;;;;;;;;;6339923;22;20076;-81
2023/01/02 09:48:13;;;;;;;10.88;3.38;;;;;;;;;;6311781;22;20470;-81
2023/01/02 09:50:40;;;;;;;6.00;2.97;;;;;;;;;;6341155;22;20483;-81
2023/01/02 09:53:06;;;;;;;7.65;2.72;;;;;;;;;;6343040;22;20219;-82
2023/01/02 09:55:45;;;;;;;8.98;3.58;;;;;;;;;;6340149;22;20107;-81
2023/01/02 09:58:31;;;;;;;7.60;2.53;;;;;;;;;;6340155;22;20504;-82
2023/01/02 10:00:58;;;;;;;6.85;2.22;;;;;;;;;;6340812;22;20021;-81
2023/01/02 10:03:33;;;;;;;7.75;2.30;;;;;;;;;;6339919;22;20031;-81
2023/01/02 10:06:03;;;;;;;6.18;2.05;;;;;;;;;;6338729;22;20027;-81
2023/01/02 10:08:48;;;;;;;6.80;2.13;;;;;;;;;;6340457;22;20029;-81
2023/01/02 10:11:29;;;;;;;8.65;2.00;;;;;;;;;;6341111;22;20117;-81
2023/01/02 10:14:18;;;;;;;4.75;1.60;;;;;;;;;;6343643;22;20840;-81
2023/01/02 10:17:01;;;;;;;6.40;1.90;;;;;;;;;;6342036;22;20025;-81
2023/01/02 10:19:51;;;;;;;6.30;1.75;;;;;;;;;;6344218;22;20056;-81
2023/01/02 10:22:26;;;;;;;8.52;2.22;;;;;;;;;;6338556;22;20099;-82
2023/01/02 10:24:59;;;;;;;6.35;1.73;;;;;;;;;;6338536;22;20794;-81
2023/01/02 10:27:30;;;;;;;5.32;1.70;;;;;;;;;;6341375;22;20011;-81
2023/01/02 10:30:02;;;;;;;5.40;2.53;;;;;;;;;;6341277;22;20050;-81
2023/01/02 10:32:29;;;;;;;10.95;2.63;;;;;;;;;;6343646;22;20028;-81
2023/01/02 10:35:09;;;;;;;8.25;2.53;;;;;;;;;;6343661;22;20023;-82
2023/01/02 10:37:36;;;;;;;5.93;2.43;;;;;;;;;;6342074;22;20081;-81
2023/01/02 10:40:03;;;;;;;7.03;2.20;;;;;;;;;;6339301;22;20221;-83
2023/01/02 10:42:31;;;;;;;6.43;1.90;;;;;;;;;;6310625;22;20051;-83
2023/01/02 10:44:57;;;;;;;7.38;1.75;;;;;;;;;;6338417;22;20023;-83
2023/01/02 10:47:30;;;;;;;6.50;1.50;;;;;;;;;;6336849;22;20019;-82
2023/01/02 10:49:57;;;;;;;5.97;2.00;;;;;;;;;;6336432;22;20023;-81
2023/01/02 10:52:28;;;;;;;6.40;1.63;;;;;;;;;;6337724;22;20114;-83
2023/01/02 10:54:55;;;;;;;5.38;1.30;;;;;;;;;;6338607;22;20104;-81
2023/01/02 10:57:34;;;;;;;5.88;1.40;;;;;;;;;;6336540;22;20019;-82
2023/01/02 11:00:03;;;;;;;9.05;1.50;;;;;;;;;;6309810;22;20098;-81
2023/01/02 11:02:30;;;;;;;7.32;1.65;;;;;;;;;;6310012;22;20959;-81
2023/01/02 11:04:59;;;;;;;3.92;1.27;;;;;;;;;;6335974;22;20830;-81
2023/01/02 11:07:27;;;;;;;4.95;1.42;;;;;;;;;;6336641;22;20079;-82
2023/01/02 11:09:54;;;;;;;5.40;1.42;;;;;;;;;;6311976;22;20082;-81
2023/01/02 11:12:21;;;;;;;8.32;2.00;;;;;;;;;;6337767;22;20028;-82
2023/01/02 11:15:08;;;;;;;4.60;1.60;;;;;;;;;;6336939;22;20531;-82
2023/01/02 11:17:39;;;;;;;13.77;1.95;;;;;;;;;;6336587;22;20848;-81
2023/01/02 11:20:17;;;;;;;7.28;1.35;;;;;;;;;;6309935;22;20054;-81
2023/01/02 11:22:43;;;;;;;8.15;1.35;;;;;;;;;;6310123;22;20098;-82
2023/01/02 11:25:36;;;;;;;7.38;1.23;;;;;;;;;;6337173;22;20031;-81
2023/01/02 11:28:02;;;;;;;5.75;1.35;;;;;;;;;;6304669;22;20023;-82
2023/01/02 11:30:34;;;;;;;6.03;1.27;;;;;;;;;;6337680;22;20371;-81
2023/01/02 11:33:03;;;;;;;6.57;1.45;;;;;;;;;;6337869;22;20027;-81
2023/01/02 11:35:33;;;;;;;8.20;1.23;;;;;;;;;;6337762;22;20058;-82
2023/01/02 11:38:00;;;;;;;4.60;1.20;;;;;;;;;;6340852;22;20085;-82
2023/01/02 11:40:30;;;;;;;8.07;1.50;;;;;;;;;;6312124;22;20027;-82
2023/01/02 11:45:45;;;;;;;9.10;1.67;;;;;;;;;;6340404;22;20090;-83
2023/01/02 11:48:14;;;;;;;6.65;1.33;;;;;;;;;;6337458;22;20015;-83
2023/01/02 11:50:41;;;;;;;10.65;2.25;;;;;;;;;;6336081;22;20846;-82
2023/01/02 11:53:15;;;;;;;8.70;1.60;;;;;;;;;;6339049;22;20085;-81
2023/01/02 11:55:57;;;;;;;8.23;1.92;;;;;;;;;;6342287;22;20079;-83
2023/01/02 11:58:29;;;;;;;5.20;1.08;;;;;;;;;;6339970;22;20007;-82
2023/01/02 12:01:05;;;;;;;8.52;1.30;;;;;;;;;;6341404;22;20012;-82
2023/01/02 12:03:32;;;;;;;4.80;1.20;;;;;;;;;;6343006;22;20066;-82
2023/01/02 12:06:10;;;;;;;9.52;1.55;;;;;;;;;;6343088;22;20023;-82
2023/01/02 12:08:52;;;;;;;10.63;1.35;;;;;;;;;;6344067;22;20031;-82
2023/01/02 12:11:27;;;;;;;8.18;1.52;;;;;;;;;;6344613;22;20019;-82
2023/01/02 12:14:03;;;;;;;7.80;1.38;;;;;;;;;;6315066;22;20034;-81
2023/01/02 12:16:48;;;;;;;7.95;1.63;;;;;;;;;;6343586;22;20019;-82
2023/01/02 12:19:26;;;;;;;9.20;1.77;;;;;;;;;;6341095;22;20779;-82
2023/01/02 12:21:58;;;;;;;6.95;1.98;;;;;;;;;;6340812;22;20757;-81
2023/01/02 12:24:43;;;;;;;8.27;1.70;;;;;;;;;;6342144;22;20016;-82
2023/01/02 12:27:13;;;;;;;8.63;2.30;;;;;;;;;;6343448;22;20023;-82
2023/01/02 12:29:50;;;;;;;6.32;1.70;;;;;;;;;;6342078;22;20059;-82
2023/01/02 12:32:17;;;;;;;11.93;4.75;;;;;;;;;;6314216;22;20024;-82
2023/01/02 12:34:44;;;;;;;7.85;2.83;;;;;;;;;;6344482;22;20114;-82
2023/01/02 12:37:18;;;;;;;7.53;2.15;;;;;;;;;;6324187;22;20027;-82
2023/01/02 12:39:54;;;;;;;10.13;2.42;;;;;;;;;;6355165;22;20906;-82
2023/01/02 12:42:32;;;;;;;8.95;2.00;;;;;;;;;;6345926;22;20027;-82
2023/01/02 12:44:59;;;;;;;9.68;2.35;;;;;;;;;;6341292;22;20015;-83
2023/01/02 12:47:34;;;;;;;8.82;2.00;;;;;;;;;;6342140;22;20710;-82
2023/01/02 12:50:01;;;;;;;7.15;2.40;;;;;;;;;;6342663;22;20686;-82
2023/01/02 12:52:41;;;;;;;8.38;2.40;;;;;;;;;;6341294;22;20015;-82
2023/01/02 12:55:26;;;;;;;10.52;2.70;;;;;;;;;;6341143;22;20034;-81
2023/01/02 12:57:53;;;;;;;11.43;2.60;;;;;;;;;;6339681;22;20011;-81
2023/01/02 13:00:19;;;;;;;11.93;3.72;;;;;;;;;;6340532;22;20134;-82
2023/01/02 13:02:58;;;;;;;9.13;3.13;;;;;;;;;;6338667;22;20039;-81
2023/01/02 13:05:30;;;;;;;8.70;3.13;;;;;;;;;;6312068;22;20023;-82
2023/01/02 13:08:13;;;;;;;11.40;3.47;;;;;;;;;;6312344;22;20034;-81
2023/01/02 13:10:39;;;;;;;6.97;3.28;;;;;;;;;;6339557;22;20971;-81
2023/01/02 13:13:08;;;;;;;13.05;3.95;;;;;;;;;;6338818;22;20077;-83
2023/01/02 13:15:36;;;;;;;11.90;3.88;;;;;;;;;;6339950;22;20043;-82
2023/01/02 13:18:06;;;;;;;10.90;4.13;;;;;;;;;;6337510;22;20090;-83
2023/01/02 13:20:41;;;;;;;13.50;4.80;;;;;;;;;;6339689;22;20026;-82
2023/01/02 13:23:26;;;;;;;10.82;4.78;;;;;;;;;;6312137;22;20563;-82
2023/01/02 13:25:55;;;;;;;13.65;5.07;;;;;;;;;;6338938;22;20030;-82
2023/01/02 13:28:22;;;;;;;12.10;5.60;;;;;;;;;;6339331;22;20023;-82
2023/01/02 13:30:50;;;;;;;14.13;5.65;;;;;;;;;;6340133;22;20038;-82
2023/01/02 13:33:41;;;;;;;15.90;5.65;;;;;;;;;;6340259;22;20460;-81
2023/01/02 13:36:16;;;;;;;17.00;6.18;;;;;;;;;;6338898;22;20011;-81
2023/01/02 13:38:44;;;;;;;11.73;6.05;;;;;;;;;;6339933;22;20033;-81
2023/01/02 13:41:14;;;;;;;15.35;6.65;;;;;;;;;;6340673;22;20975;-81
2023/01/02 13:43:40;;;;;;;14.25;6.35;;;;;;;;;;6339275;22;20031;-82
2023/01/02 13:46:09;;;;;;;17.13;7.25;;;;;;;;;;6339699;22;20024;-82
2023/01/02 13:49:00;;;;;;;14.85;6.82;;;;;;;;;;6339353;22;20031;-82
2023/01/02 13:51:31;;;;;;;13.45;6.55;;;;;;;;;;6340822;22;20063;-81
2023/01/02 13:54:00;;;;;;;15.13;6.97;;;;;;;;;;6340417;22;20775;-82
2023/01/02 13:56:27;;;;;;;16.52;6.80;;;;;;;;;;6338590;22;20034;-82
2023/01/02 13:58:56;;;;;;;13.90;6.95;;;;;;;;;;6338870;22;20033;-81
2023/01/02 14:01:23;;;;;;;17.65;7.32;;;;;;;;;;6339031;22;20089;-81
2023/01/02 14:03:49;;;;;;;13.93;7.13;;;;;;;;;;6340455;22;20031;-81
2023/01/02 14:06:25;;;;;;;20.38;7.60;;;;;;;;;;6312221;22;20027;-81
2023/01/02 14:09:04;;;;;;;16.13;7.80;;;;;;;;;;6338626;22;20413;-81
2023/01/02 14:11:32;;;;;;;17.38;6.95;;;;;;;;;;6340518;22;20131;-80
2023/01/02 14:14:21;;;;;;;17.65;7.93;;;;;;;;;;6339766;22;20029;-81
2023/01/02 14:17:00;;;;;;;16.25;8.38;;;;;;;;;;6339424;22;20021;-81
2023/01/02 14:19:26;;;;;;;15.07;8.05;;;;;;;;;;6340469;22;20038;-81
2023/01/02 14:22:01;;;;;;;18.48;8.43;;;;;;;;;;6339013;22;20055;-81
2023/01/02 14:24:36;;;;;;;19.02;8.57;;;;;;;;;;6339520;22;20098;-80
2023/01/02 14:27:16;;;;;;;22.40;10.25;;;;;;;;;;6339211;22;20529;-80
2023/01/02 14:29:44;;;;;;;21.25;10.52;;;;;;;;;;6338240;22;20890;-81
2023/01/02 14:32:18;;;;;;;19.00;8.30;;;;;;;;;;6313349;22;20054;-81
2023/01/02 14:34:46;;;;;;;18.88;8.00;;;;;;;;;;6337405;22;20031;-81
2023/01/02 14:37:25;;;;;;;19.65;8.15;;;;;;;;;;6309919;22;20055;-81
2023/01/02 14:39:51;;;;;;;17.42;8.18;;;;;;;;;;6339631;22;20093;-81
2023/01/02 14:45:09;;;;;;;15.75;7.72;;;;;;;;;;6339413;22;20027;-81
2023/01/02 14:47:41;;;;;;;17.90;8.38;;;;;;;;;;6339031;22;20103;-82
2023/01/02 14:50:17;;;;;;;17.90;7.80;;;;;;;;;;6311936;22;20098;-81
2023/01/02 14:52:47;;;;;;;15.40;6.63;;;;;;;;;;6339255;22;20027;-81
2023/01/02 14:55:19;;;;;;;17.08;7.15;;;;;;;;;;6339162;22;20027;-81
2023/01/02 14:57:47;;;;;;;16.42;7.13;;;;;;;;;;6338785;22;20012;-81
2023/01/02 15:00:28;;;;;;;18.45;7.05;;;;;;;;;;6339142;22;20587;-81